sensor_id;sensor_type;location;lat;lon;timestamp;P1;P2;P0
44350;PMS5003;62766;62.622;17.912;2022-09-19T00:02:24;2;1;
44350;PMS5003;62766;62.622;17.912;2022-09-19T00:04:52;0;0;
44350;PMS5003;62766;62.622;17.912;2022-09-19T00:07:20;0;0;
44350;PMS5003;62766;62.622;17.912;2022-09-19T00:09:49;0;0;
44350;PMS5003;62766;62.622;17.912;2022-09-19T00:12:18;0;0;
44350;PMS5003;62766;62.622;17.912;2022-09-19T00:14:47;0;0;
44350;PMS5003;62766;62.622;17.912;2022-09-19T00:17:16;1;0;
44350;PMS5003;62766;62.622;17.912;2022-09-19T00:19:45;0;0;
44350;PMS5003;62766;62.622;17.912;2022-09-19T00:22:13;0;0;
44350;PMS5003;62766;62.622;17.912;2022-09-19T00:24:41;0;0;
44350;PMS5003;62766;62.622;17.912;2022-09-19T00:27:12;0;0;
44350;PMS5003;62766;62.622;17.912;2022-09-19T00:29:43;0;0;
44350;PMS5003;62766;62.622;17.912;2022-09-19T00:32:11;0;0;
44350;PMS5003;62766;62.622;17.912;2022-09-19T00:34:40;0;0;
44350;PMS5003;62766;62.622;17.912;2022-09-19T00:37:09;0;0;
44350;PMS5003;62766;62.622;17.912;2022-09-19T00:39:39;0;0;
44350;PMS5003;62766;62.622;17.912;2022-09-19T00:42:13;0;0;
44350;PMS5003;62766;62.622;17.912;2022-09-19T00:44:51;0;0;
44350;PMS5003;62766;62.622;17.912;2022-09-19T00:47:24;0;0;
44350;PMS5003;62766;62.622;17.912;2022-09-19T00:49:58;0;0;
44350;PMS5003;62766;62.622;17.912;2022-09-19T00:52:32;0;0;
44350;PMS5003;62766;62.622;17.912;2022-09-19T00:55:05;0;0;
44350;PMS5003;62766;62.622;17.912;2022-09-19T00:57:37;0;0;
44350;PMS5003;62766;62.622;17.912;2022-09-19T01:00:11;0;0;
44350;PMS5003;62766;62.622;17.912;2022-09-19T01:02:40;0;0;
44350;PMS5003;62766;62.622;17.912;2022-09-19T01:05:08;0;0;
44350;PMS5003;62766;62.622;17.912;2022-09-19T01:07:41;0;0;
44350;PMS5003;62766;62.622;17.912;2022-09-19T01:10:21;1;1;
44350;PMS5003;62766;62.622;17.912;2022-09-19T01:13:03;0;0;
44350;PMS5003;62766;62.622;17.912;2022-09-19T01:15:43;0;0;
44350;PMS5003;62766;62.622;17.912;2022-09-19T01:18:17;0;0;
44350;PMS5003;62766;62.622;17.912;2022-09-19T01:23:56;0;0;
44350;PMS5003;62766;62.622;17.912;2022-09-19T01:26:42;0;0;
44350;PMS5003;62766;62.622;17.912;2022-09-19T01:29:25;0;0;
44350;PMS5003;62766;62.622;17.912;2022-09-19T01:31:58;0;0;
44350;PMS5003;62766;62.622;17.912;2022-09-19T01:34:30;0;0;
44350;PMS5003;62766;62.622;17.912;2022-09-19T01:37:04;0;0;
44350;PMS5003;62766;62.622;17.912;2022-09-19T01:39:37;0;0;
44350;PMS5003;62766;62.622;17.912;2022-09-19T01:42:11;0;0;
44350;PMS5003;62766;62.622;17.912;2022-09-19T01:44:40;0;0;
44350;PMS5003;62766;62.622;17.912;2022-09-19T01:47:12;0;0;
44350;PMS5003;62766;62.622;17.912;2022-09-19T01:49:49;0;0;
44350;PMS5003;62766;62.622;17.912;2022-09-19T01:52:24;0;0;
44350;PMS5003;62766;62.622;17.912;2022-09-19T01:55:06;0;0;
44350;PMS5003;62766;62.622;17.912;2022-09-19T01:57:44;0;0;
44350;PMS5003;62766;62.622;17.912;2022-09-19T02:00:20;1;1;
44350;PMS5003;62766;62.622;17.912;2022-09-19T02:02:54;0;0;
44350;PMS5003;62766;62.622;17.912;2022-09-19T02:05:30;0;0;
44350;PMS5003;62766;62.622;17.912;2022-09-19T02:08:07;0;0;
44350;PMS5003;62766;62.622;17.912;2022-09-19T02:10:43;0;0;
44350;PMS5003;62766;62.622;17.912;2022-09-19T02:13:16;0;0;
44350;PMS5003;62766;62.622;17.912;2022-09-19T02:15:47;0;0;
44350;PMS5003;62766;62.622;17.912;2022-09-19T02:18:23;0;0;
44350;PMS5003;62766;62.622;17.912;2022-09-19T02:20:58;0;0;
44350;PMS5003;62766;62.622;17.912;2022-09-19T02:23:30;0;0;
44350;PMS5003;62766;62.622;17.912;2022-09-19T02:26:04;0;0;
44350;PMS5003;62766;62.622;17.912;2022-09-19T02:28:35;0;0;
44350;PMS5003;62766;62.622;17.912;2022-09-19T02:31:08;0;0;
44350;PMS5003;62766;62.622;17.912;2022-09-19T02:33:40;0;0;
44350;PMS5003;62766;62.622;17.912;2022-09-19T02:36:11;0;0;
44350;PMS5003;62766;62.622;17.912;2022-09-19T02:38:47;0;0;
44350;PMS5003;62766;62.622;17.912;2022-09-19T02:41:22;0;0;
44350;PMS5003;62766;62.622;17.912;2022-09-19T02:43:59;0;0;
44350;PMS5003;62766;62.622;17.912;2022-09-19T02:46:35;2;0;
44350;PMS5003;62766;62.622;17.912;2022-09-19T02:49:11;3;2;
44350;PMS5003;62766;62.622;17.912;2022-09-19T02:51:48;0;0;
44350;PMS5003;62766;62.622;17.912;2022-09-19T02:54:22;0;0;
44350;PMS5003;62766;62.622;17.912;2022-09-19T02:56:53;1;0;
44350;PMS5003;62766;62.622;17.912;2022-09-19T02:59:27;0;0;
44350;PMS5003;62766;62.622;17.912;2022-09-19T03:02:00;0;0;
44350;PMS5003;62766;62.622;17.912;2022-09-19T03:04:32;0;0;
44350;PMS5003;62766;62.622;17.912;2022-09-19T03:07:05;0;0;
44350;PMS5003;62766;62.622;17.912;2022-09-19T03:09:39;0;0;
44350;PMS5003;62766;62.622;17.912;2022-09-19T03:12:13;0;0;
44350;PMS5003;62766;62.622;17.912;2022-09-19T03:14:46;0;0;
44350;PMS5003;62766;62.622;17.912;2022-09-19T03:17:17;0;0;
44350;PMS5003;62766;62.622;17.912;2022-09-19T03:19:49;0;0;
44350;PMS5003;62766;62.622;17.912;2022-09-19T03:22:17;0;0;
44350;PMS5003;62766;62.622;17.912;2022-09-19T03:24:45;0;0;
44350;PMS5003;62766;62.622;17.912;2022-09-19T03:27:15;0;0;
44350;PMS5003;62766;62.622;17.912;2022-09-19T03:29:43;0;0;
44350;PMS5003;62766;62.622;17.912;2022-09-19T03:32:11;0;0;
44350;PMS5003;62766;62.622;17.912;2022-09-19T03:34:40;0;0;
44350;PMS5003;62766;62.622;17.912;2022-09-19T03:37:08;0;0;
44350;PMS5003;62766;62.622;17.912;2022-09-19T03:39:36;0;0;
44350;PMS5003;62766;62.622;17.912;2022-09-19T03:42:04;0;0;
44350;PMS5003;62766;62.622;17.912;2022-09-19T03:44:33;0;0;
44350;PMS5003;62766;62.622;17.912;2022-09-19T03:47:01;0;0;
44350;PMS5003;62766;62.622;17.912;2022-09-19T03:49:29;0;0;
44350;PMS5003;62766;62.622;17.912;2022-09-19T03:51:57;0;0;
44350;PMS5003;62766;62.622;17.912;2022-09-19T03:54:25;0;0;
44350;PMS5003;62766;62.622;17.912;2022-09-19T03:56:54;0;0;
44350;PMS5003;62766;62.622;17.912;2022-09-19T03:59:22;0;0;
44350;PMS5003;62766;62.622;17.912;2022-09-19T04:03:19;0;0;
44350;PMS5003;62766;62.622;17.912;2022-09-19T04:05:49;0;0;
44350;PMS5003;62766;62.622;17.912;2022-09-19T04:08:19;0;0;
44350;PMS5003;62766;62.622;17.912;2022-09-19T04:10:49;0;0;
44350;PMS5003;62766;62.622;17.912;2022-09-19T04:13:17;0;0;
44350;PMS5003;62766;62.622;17.912;2022-09-19T04:15:45;0;0;
44350;PMS5003;62766;62.622;17.912;2022-09-19T04:18:13;0;0;
44350;PMS5003;62766;62.622;17.912;2022-09-19T04:20:41;0;0;
44350;PMS5003;62766;62.622;17.912;2022-09-19T04:23:10;0;0;
44350;PMS5003;62766;62.622;17.912;2022-09-19T04:25:38;0;0;
44350;PMS5003;62766;62.622;17.912;2022-09-19T04:28:07;0;0;
44350;PMS5003;62766;62.622;17.912;2022-09-19T04:30:38;0;0;
44350;PMS5003;62766;62.622;17.912;2022-09-19T04:33:08;0;0;
44350;PMS5003;62766;62.622;17.912;2022-09-19T04:35:40;0;0;
44350;PMS5003;62766;62.622;17.912;2022-09-19T04:38:10;0;0;
44350;PMS5003;62766;62.622;17.912;2022-09-19T04:40:41;5;5;
44350;PMS5003;62766;62.622;17.912;2022-09-19T04:43:12;0;0;
44350;PMS5003;62766;62.622;17.912;2022-09-19T04:45:41;0;0;
44350;PMS5003;62766;62.622;17.912;2022-09-19T04:48:10;0;0;
44350;PMS5003;62766;62.622;17.912;2022-09-19T04:50:38;0;0;
44350;PMS5003;62766;62.622;17.912;2022-09-19T04:53:06;0;0;
44350;PMS5003;62766;62.622;17.912;2022-09-19T04:55:34;0;0;
44350;PMS5003;62766;62.622;17.912;2022-09-19T04:58:03;0;0;
44350;PMS5003;62766;62.622;17.912;2022-09-19T05:00:31;0;0;
44350;PMS5003;62766;62.622;17.912;2022-09-19T05:02:59;0;0;
44350;PMS5003;62766;62.622;17.912;2022-09-19T05:05:27;0;0;
44350;PMS5003;62766;62.622;17.912;2022-09-19T05:07:55;0;0;
44350;PMS5003;62766;62.622;17.912;2022-09-19T05:10:23;1;0;
44350;PMS5003;62766;62.622;17.912;2022-09-19T05:12:52;0;0;
44350;PMS5003;62766;62.622;17.912;2022-09-19T05:15:20;0;0;
44350;PMS5003;62766;62.622;17.912;2022-09-19T05:17:50;0;0;
44350;PMS5003;62766;62.622;17.912;2022-09-19T05:20:18;0;0;
44350;PMS5003;62766;62.622;17.912;2022-09-19T05:22:48;0;0;
44350;PMS5003;62766;62.622;17.912;2022-09-19T05:25:16;0;0;
44350;PMS5003;62766;62.622;17.912;2022-09-19T05:27:44;0;0;
44350;PMS5003;62766;62.622;17.912;2022-09-19T05:30:13;0;0;
44350;PMS5003;62766;62.622;17.912;2022-09-19T05:32:41;1;0;
44350;PMS5003;62766;62.622;17.912;2022-09-19T05:35:09;0;0;
44350;PMS5003;62766;62.622;17.912;2022-09-19T05:37:39;0;0;
44350;PMS5003;62766;62.622;17.912;2022-09-19T05:40:08;0;0;
44350;PMS5003;62766;62.622;17.912;2022-09-19T05:42:39;0;0;
44350;PMS5003;62766;62.622;17.912;2022-09-19T05:45:08;0;0;
44350;PMS5003;62766;62.622;17.912;2022-09-19T05:47:39;0;0;
44350;PMS5003;62766;62.622;17.912;2022-09-19T05:50:08;0;0;
44350;PMS5003;62766;62.622;17.912;2022-09-19T05:52:39;0;0;
44350;PMS5003;62766;62.622;17.912;2022-09-19T05:55:09;0;0;
44350;PMS5003;62766;62.622;17.912;2022-09-19T05:57:37;0;0;
44350;PMS5003;62766;62.622;17.912;2022-09-19T06:00:05;0;0;
44350;PMS5003;62766;62.622;17.912;2022-09-19T06:02:35;0;0;
44350;PMS5003;62766;62.622;17.912;2022-09-19T06:05:03;0;0;
44350;PMS5003;62766;62.622;17.912;2022-09-19T06:07:34;1;0;
44350;PMS5003;62766;62.622;17.912;2022-09-19T06:10:03;0;0;
44350;PMS5003;62766;62.622;17.912;2022-09-19T06:12:33;0;0;
44350;PMS5003;62766;62.622;17.912;2022-09-19T06:15:03;0;0;
44350;PMS5003;62766;62.622;17.912;2022-09-19T06:17:33;0;0;
44350;PMS5003;62766;62.622;17.912;2022-09-19T06:20:01;0;0;
44350;PMS5003;62766;62.622;17.912;2022-09-19T06:22:31;0;0;
44350;PMS5003;62766;62.622;17.912;2022-09-19T06:24:59;0;0;
44350;PMS5003;62766;62.622;17.912;2022-09-19T06:27:27;0;0;
44350;PMS5003;62766;62.622;17.912;2022-09-19T06:29:56;0;0;
44350;PMS5003;62766;62.622;17.912;2022-09-19T06:32:24;0;0;
44350;PMS5003;62766;62.622;17.912;2022-09-19T06:34:52;0;0;
44350;PMS5003;62766;62.622;17.912;2022-09-19T06:37:21;1;1;
44350;PMS5003;62766;62.622;17.912;2022-09-19T06:39:50;0;0;
44350;PMS5003;62766;62.622;17.912;2022-09-19T06:42:19;0;0;
44350;PMS5003;62766;62.622;17.912;2022-09-19T06:44:48;0;0;
44350;PMS5003;62766;62.622;17.912;2022-09-19T06:47:16;0;0;
44350;PMS5003;62766;62.622;17.912;2022-09-19T06:49:45;0;0;
44350;PMS5003;62766;62.622;17.912;2022-09-19T06:52:13;0;0;
44350;PMS5003;62766;62.622;17.912;2022-09-19T06:54:41;0;0;
44350;PMS5003;62766;62.622;17.912;2022-09-19T06:57:09;0;0;
44350;PMS5003;62766;62.622;17.912;2022-09-19T06:59:37;0;0;
44350;PMS5003;62766;62.622;17.912;2022-09-19T07:02:06;0;0;
44350;PMS5003;62766;62.622;17.912;2022-09-19T07:04:36;1;0;
44350;PMS5003;62766;62.622;17.912;2022-09-19T07:07:04;0;0;
44350;PMS5003;62766;62.622;17.912;2022-09-19T07:09:32;0;0;
44350;PMS5003;62766;62.622;17.912;2022-09-19T07:12:00;0;0;
44350;PMS5003;62766;62.622;17.912;2022-09-19T07:14:28;0;0;
44350;PMS5003;62766;62.622;17.912;2022-09-19T07:16:57;0;0;
44350;PMS5003;62766;62.622;17.912;2022-09-19T07:19:25;0;0;
44350;PMS5003;62766;62.622;17.912;2022-09-19T07:21:53;0;0;
44350;PMS5003;62766;62.622;17.912;2022-09-19T07:24:21;0;0;
44350;PMS5003;62766;62.622;17.912;2022-09-19T07:26:49;0;0;
44350;PMS5003;62766;62.622;17.912;2022-09-19T07:29:18;0;0;
44350;PMS5003;62766;62.622;17.912;2022-09-19T07:31:47;0;0;
44350;PMS5003;62766;62.622;17.912;2022-09-19T07:34:16;0;0;
44350;PMS5003;62766;62.622;17.912;2022-09-19T07:36:44;0;0;
44350;PMS5003;62766;62.622;17.912;2022-09-19T07:39:12;0;0;
44350;PMS5003;62766;62.622;17.912;2022-09-19T07:41:40;0;0;
44350;PMS5003;62766;62.622;17.912;2022-09-19T07:44:09;0;0;
44350;PMS5003;62766;62.622;17.912;2022-09-19T07:46:37;0;0;
44350;PMS5003;62766;62.622;17.912;2022-09-19T07:49:05;0;0;
44350;PMS5003;62766;62.622;17.912;2022-09-19T07:51:33;0;0;
44350;PMS5003;62766;62.622;17.912;2022-09-19T07:54:01;0;0;
44350;PMS5003;62766;62.622;17.912;2022-09-19T07:56:29;0;0;
44350;PMS5003;62766;62.622;17.912;2022-09-19T07:58:58;0;0;
44350;PMS5003;62766;62.622;17.912;2022-09-19T08:01:26;0;0;
44350;PMS5003;62766;62.622;17.912;2022-09-19T08:03:55;0;0;
44350;PMS5003;62766;62.622;17.912;2022-09-19T08:06:24;0;0;
44350;PMS5003;62766;62.622;17.912;2022-09-19T08:08:52;0;0;
44350;PMS5003;62766;62.622;17.912;2022-09-19T08:11:21;0;0;
44350;PMS5003;62766;62.622;17.912;2022-09-19T08:13:50;0;0;
44350;PMS5003;62766;62.622;17.912;2022-09-19T08:16:19;0;0;
44350;PMS5003;62766;62.622;17.912;2022-09-19T08:18:48;0;0;
44350;PMS5003;62766;62.622;17.912;2022-09-19T08:21:17;0;0;
44350;PMS5003;62766;62.622;17.912;2022-09-19T08:23:45;0;0;
44350;PMS5003;62766;62.622;17.912;2022-09-19T08:26:13;0;0;
44350;PMS5003;62766;62.622;17.912;2022-09-19T08:28:41;0;0;
44350;PMS5003;62766;62.622;17.912;2022-09-19T08:31:09;0;0;
44350;PMS5003;62766;62.622;17.912;2022-09-19T08:33:38;0;0;
44350;PMS5003;62766;62.622;17.912;2022-09-19T08:36:06;0;0;
44350;PMS5003;62766;62.622;17.912;2022-09-19T08:38:34;0;0;
44350;PMS5003;62766;62.622;17.912;2022-09-19T08:41:07;0;0;
44350;PMS5003;62766;62.622;17.912;2022-09-19T08:43:52;0;0;
44350;PMS5003;62766;62.622;17.912;2022-09-19T08:46:26;0;0;
44350;PMS5003;62766;62.622;17.912;2022-09-19T08:49:02;0;0;
44350;PMS5003;62766;62.622;17.912;2022-09-19T08:51:41;1;0;
44350;PMS5003;62766;62.622;17.912;2022-09-19T08:54:21;0;0;
44350;PMS5003;62766;62.622;17.912;2022-09-19T08:56:56;0;0;
44350;PMS5003;62766;62.622;17.912;2022-09-19T08:59:27;0;0;
44350;PMS5003;62766;62.622;17.912;2022-09-19T09:02:04;0;0;
44350;PMS5003;62766;62.622;17.912;2022-09-19T09:04:41;0;0;
44350;PMS5003;62766;62.622;17.912;2022-09-19T09:07:14;0;0;
44350;PMS5003;62766;62.622;17.912;2022-09-19T09:09:54;0;0;
44350;PMS5003;62766;62.622;17.912;2022-09-19T09:12:36;0;0;
44350;PMS5003;62766;62.622;17.912;2022-09-19T09:15:17;0;0;
44350;PMS5003;62766;62.622;17.912;2022-09-19T09:17:55;0;0;
44350;PMS5003;62766;62.622;17.912;2022-09-19T09:20:40;0;0;
44350;PMS5003;62766;62.622;17.912;2022-09-19T09:23:17;0;0;
44350;PMS5003;62766;62.622;17.912;2022-09-19T09:25:49;0;0;
44350;PMS5003;62766;62.622;17.912;2022-09-19T09:28:31;1;0;
44350;PMS5003;62766;62.622;17.912;2022-09-19T09:31:11;0;0;
44350;PMS5003;62766;62.622;17.912;2022-09-19T09:33:47;0;0;
44350;PMS5003;62766;62.622;17.912;2022-09-19T09:36:21;0;0;
44350;PMS5003;62766;62.622;17.912;2022-09-19T09:38:56;0;0;
44350;PMS5003;62766;62.622;17.912;2022-09-19T09:41:32;0;0;
44350;PMS5003;62766;62.622;17.912;2022-09-19T09:44:14;0;0;
44350;PMS5003;62766;62.622;17.912;2022-09-19T09:46:56;0;0;
44350;PMS5003;62766;62.622;17.912;2022-09-19T09:49:32;0;0;
44350;PMS5003;62766;62.622;17.912;2022-09-19T09:52:05;0;0;
44350;PMS5003;62766;62.622;17.912;2022-09-19T09:54:50;0;0;
44350;PMS5003;62766;62.622;17.912;2022-09-19T09:57:31;0;0;
44350;PMS5003;62766;62.622;17.912;2022-09-19T10:03:22;0;0;
44350;PMS5003;62766;62.622;17.912;2022-09-19T10:05:58;0;0;
44350;PMS5003;62766;62.622;17.912;2022-09-19T10:08:32;0;0;
44350;PMS5003;62766;62.622;17.912;2022-09-19T10:11:05;0;0;
44350;PMS5003;62766;62.622;17.912;2022-09-19T10:13:41;0;0;
44350;PMS5003;62766;62.622;17.912;2022-09-19T10:16:14;0;0;
44350;PMS5003;62766;62.622;17.912;2022-09-19T10:18:46;0;0;
44350;PMS5003;62766;62.622;17.912;2022-09-19T10:21:21;0;0;
44350;PMS5003;62766;62.622;17.912;2022-09-19T10:23:51;0;0;
44350;PMS5003;62766;62.622;17.912;2022-09-19T10:26:21;0;0;
44350;PMS5003;62766;62.622;17.912;2022-09-19T10:28:54;0;0;
44350;PMS5003;62766;62.622;17.912;2022-09-19T10:31:28;0;0;
44350;PMS5003;62766;62.622;17.912;2022-09-19T10:33:58;0;0;
44350;PMS5003;62766;62.622;17.912;2022-09-19T10:36:26;0;0;
44350;PMS5003;62766;62.622;17.912;2022-09-19T10:38:55;0;0;
44350;PMS5003;62766;62.622;17.912;2022-09-19T10:41:25;0;0;
44350;PMS5003;62766;62.622;17.912;2022-09-19T10:44:01;0;0;
44350;PMS5003;62766;62.622;17.912;2022-09-19T10:46:33;0;0;
44350;PMS5003;62766;62.622;17.912;2022-09-19T10:49:14;0;0;
44350;PMS5003;62766;62.622;17.912;2022-09-19T10:51:45;0;0;
44350;PMS5003;62766;62.622;17.912;2022-09-19T10:54:25;0;0;
44350;PMS5003;62766;62.622;17.912;2022-09-19T10:56:57;0;0;
44350;PMS5003;62766;62.622;17.912;2022-09-19T10:59:27;0;0;
44350;PMS5003;62766;62.622;17.912;2022-09-19T11:02:31;0;0;
44350;PMS5003;62766;62.622;17.912;2022-09-19T11:05:01;0;0;
44350;PMS5003;62766;62.622;17.912;2022-09-19T11:07:32;0;0;
44350;PMS5003;62766;62.622;17.912;2022-09-19T11:10:28;0;0;
44350;PMS5003;62766;62.622;17.912;2022-09-19T11:13:04;0;0;
44350;PMS5003;62766;62.622;17.912;2022-09-19T11:15:38;0;0;
44350;PMS5003;62766;62.622;17.912;2022-09-19T11:18:21;0;0;
44350;PMS5003;62766;62.622;17.912;2022-09-19T11:21:04;0;0;
44350;PMS5003;62766;62.622;17.912;2022-09-19T11:23:42;1;0;
44350;PMS5003;62766;62.622;17.912;2022-09-19T11:26:25;0;0;
44350;PMS5003;62766;62.622;17.912;2022-09-19T11:29:06;0;0;
44350;PMS5003;62766;62.622;17.912;2022-09-19T11:32:04;0;0;
44350;PMS5003;62766;62.622;17.912;2022-09-19T11:34:43;0;0;
44350;PMS5003;62766;62.622;17.912;2022-09-19T11:37:23;0;0;
44350;PMS5003;62766;62.622;17.912;2022-09-19T11:40:05;1;1;
44350;PMS5003;62766;62.622;17.912;2022-09-19T11:42:50;0;0;
44350;PMS5003;62766;62.622;17.912;2022-09-19T11:45:28;0;0;
44350;PMS5003;62766;62.622;17.912;2022-09-19T11:48:18;0;0;
44350;PMS5003;62766;62.622;17.912;2022-09-19T11:51:07;0;0;
44350;PMS5003;62766;62.622;17.912;2022-09-19T11:53:51;0;0;
44350;PMS5003;62766;62.622;17.912;2022-09-19T11:56:45;0;0;
44350;PMS5003;62766;62.622;17.912;2022-09-19T11:59:26;0;0;
44350;PMS5003;62766;62.622;17.912;2022-09-19T12:02:14;0;0;
44350;PMS5003;62766;62.622;17.912;2022-09-19T12:04:59;0;0;
44350;PMS5003;62766;62.622;17.912;2022-09-19T12:07:41;0;0;
44350;PMS5003;62766;62.622;17.912;2022-09-19T12:10:18;0;0;
44350;PMS5003;62766;62.622;17.912;2022-09-19T12:12:52;0;0;
44350;PMS5003;62766;62.622;17.912;2022-09-19T12:15:25;0;0;
44350;PMS5003;62766;62.622;17.912;2022-09-19T12:17:59;0;0;
44350;PMS5003;62766;62.622;17.912;2022-09-19T12:20:34;1;0;
44350;PMS5003;62766;62.622;17.912;2022-09-19T12:23:10;0;0;
44350;PMS5003;62766;62.622;17.912;2022-09-19T12:25:43;0;0;
44350;PMS5003;62766;62.622;17.912;2022-09-19T12:28:12;0;0;
44350;PMS5003;62766;62.622;17.912;2022-09-19T12:30:46;0;0;
44350;PMS5003;62766;62.622;17.912;2022-09-19T12:33:26;0;0;
44350;PMS5003;62766;62.622;17.912;2022-09-19T12:36:01;0;0;
44350;PMS5003;62766;62.622;17.912;2022-09-19T12:38:35;1;0;
44350;PMS5003;62766;62.622;17.912;2022-09-19T12:41:10;0;0;
44350;PMS5003;62766;62.622;17.912;2022-09-19T12:43:46;0;0;
44350;PMS5003;62766;62.622;17.912;2022-09-19T12:46:28;0;0;
44350;PMS5003;62766;62.622;17.912;2022-09-19T12:49:09;0;0;
44350;PMS5003;62766;62.622;17.912;2022-09-19T12:51:48;0;0;
44350;PMS5003;62766;62.622;17.912;2022-09-19T12:54:24;0;0;
44350;PMS5003;62766;62.622;17.912;2022-09-19T12:57:02;0;0;
44350;PMS5003;62766;62.622;17.912;2022-09-19T12:59:36;0;0;
44350;PMS5003;62766;62.622;17.912;2022-09-19T13:02:15;0;0;
44350;PMS5003;62766;62.622;17.912;2022-09-19T13:04:53;0;0;
44350;PMS5003;62766;62.622;17.912;2022-09-19T13:07:28;0;0;
44350;PMS5003;62766;62.622;17.912;2022-09-19T13:10:05;0;0;
44350;PMS5003;62766;62.622;17.912;2022-09-19T13:12:44;0;0;
44350;PMS5003;62766;62.622;17.912;2022-09-19T13:15:19;0;0;
44350;PMS5003;62766;62.622;17.912;2022-09-19T13:17:53;0;0;
44350;PMS5003;62766;62.622;17.912;2022-09-19T13:20:24;0;0;
44350;PMS5003;62766;62.622;17.912;2022-09-19T13:22:56;0;0;
44350;PMS5003;62766;62.622;17.912;2022-09-19T13:25:25;0;0;
44350;PMS5003;62766;62.622;17.912;2022-09-19T13:28:23;0;0;
44350;PMS5003;62766;62.622;17.912;2022-09-19T13:31:00;0;0;
44350;PMS5003;62766;62.622;17.912;2022-09-19T13:33:41;0;0;
44350;PMS5003;62766;62.622;17.912;2022-09-19T13:36:13;0;0;
44350;PMS5003;62766;62.622;17.912;2022-09-19T13:38:45;0;0;
44350;PMS5003;62766;62.622;17.912;2022-09-19T13:41:17;0;0;
44350;PMS5003;62766;62.622;17.912;2022-09-19T13:43:55;0;0;
44350;PMS5003;62766;62.622;17.912;2022-09-19T13:46:30;0;0;
44350;PMS5003;62766;62.622;17.912;2022-09-19T13:49:07;0;0;
44350;PMS5003;62766;62.622;17.912;2022-09-19T13:51:41;0;0;
44350;PMS5003;62766;62.622;17.912;2022-09-19T13:54:14;0;0;
44350;PMS5003;62766;62.622;17.912;2022-09-19T13:57:01;0;0;
44350;PMS5003;62766;62.622;17.912;2022-09-19T13:59:31;0;0;
44350;PMS5003;62766;62.622;17.912;2022-09-19T14:02:04;0;0;
44350;PMS5003;62766;62.622;17.912;2022-09-19T14:04:51;0;0;
44350;PMS5003;62766;62.622;17.912;2022-09-19T14:07:24;0;0;
44350;PMS5003;62766;62.622;17.912;2022-09-19T14:09:57;2;1;
44350;PMS5003;62766;62.622;17.912;2022-09-19T14:13:01;0;0;
44350;PMS5003;62766;62.622;17.912;2022-09-19T14:18:27;0;0;
44350;PMS5003;62766;62.622;17.912;2022-09-19T14:21:06;2;0;
44350;PMS5003;62766;62.622;17.912;2022-09-19T14:23:36;0;0;
44350;PMS5003;62766;62.622;17.912;2022-09-19T14:26:19;1;1;
44350;PMS5003;62766;62.622;17.912;2022-09-19T14:29:07;0;0;
44350;PMS5003;62766;62.622;17.912;2022-09-19T14:31:50;0;0;
44350;PMS5003;62766;62.622;17.912;2022-09-19T14:34:34;0;0;
44350;PMS5003;62766;62.622;17.912;2022-09-19T14:37:36;0;0;
44350;PMS5003;62766;62.622;17.912;2022-09-19T14:40:21;0;0;
44350;PMS5003;62766;62.622;17.912;2022-09-19T14:43:04;0;0;
44350;PMS5003;62766;62.622;17.912;2022-09-19T14:45:54;0;0;
44350;PMS5003;62766;62.622;17.912;2022-09-19T14:48:37;0;0;
44350;PMS5003;62766;62.622;17.912;2022-09-19T14:51:17;0;0;
44350;PMS5003;62766;62.622;17.912;2022-09-19T14:53:54;0;0;
44350;PMS5003;62766;62.622;17.912;2022-09-19T14:56:33;0;0;
44350;PMS5003;62766;62.622;17.912;2022-09-19T14:59:01;1;1;
44350;PMS5003;62766;62.622;17.912;2022-09-19T15:01:30;1;1;
44350;PMS5003;62766;62.622;17.912;2022-09-19T15:04:01;0;0;
44350;PMS5003;62766;62.622;17.912;2022-09-19T15:06:43;0;0;
44350;PMS5003;62766;62.622;17.912;2022-09-19T15:09:17;0;0;
44350;PMS5003;62766;62.622;17.912;2022-09-19T15:11:48;0;0;
44350;PMS5003;62766;62.622;17.912;2022-09-19T15:14:19;0;0;
44350;PMS5003;62766;62.622;17.912;2022-09-19T15:16:48;0;0;
44350;PMS5003;62766;62.622;17.912;2022-09-19T15:19:17;0;0;
44350;PMS5003;62766;62.622;17.912;2022-09-19T15:21:46;4;4;
44350;PMS5003;62766;62.622;17.912;2022-09-19T15:24:15;4;4;
44350;PMS5003;62766;62.622;17.912;2022-09-19T15:26:44;1;1;
44350;PMS5003;62766;62.622;17.912;2022-09-19T15:29:19;1;1;
44350;PMS5003;62766;62.622;17.912;2022-09-19T15:32:05;2;2;
44350;PMS5003;62766;62.622;17.912;2022-09-19T15:34:34;0;0;
44350;PMS5003;62766;62.622;17.912;2022-09-19T15:37:07;4;4;
44350;PMS5003;62766;62.622;17.912;2022-09-19T15:39:41;0;0;
44350;PMS5003;62766;62.622;17.912;2022-09-19T15:42:11;2;2;
44350;PMS5003;62766;62.622;17.912;2022-09-19T15:44:41;0;0;
44350;PMS5003;62766;62.622;17.912;2022-09-19T15:47:11;1;1;
44350;PMS5003;62766;62.622;17.912;2022-09-19T15:49:43;1;1;
44350;PMS5003;62766;62.622;17.912;2022-09-19T15:52:15;0;0;
44350;PMS5003;62766;62.622;17.912;2022-09-19T15:54:47;1;1;
44350;PMS5003;62766;62.622;17.912;2022-09-19T15:57:22;0;0;
44350;PMS5003;62766;62.622;17.912;2022-09-19T15:59:53;0;0;
44350;PMS5003;62766;62.622;17.912;2022-09-19T16:03:22;2;2;
44350;PMS5003;62766;62.622;17.912;2022-09-19T16:06:03;0;0;
44350;PMS5003;62766;62.622;17.912;2022-09-19T16:08:34;2;2;
44350;PMS5003;62766;62.622;17.912;2022-09-19T16:11:07;17;17;
44350;PMS5003;62766;62.622;17.912;2022-09-19T16:13:53;30;28;
44350;PMS5003;62766;62.622;17.912;2022-09-19T16:16:33;27;23;
44350;PMS5003;62766;62.622;17.912;2022-09-19T16:19:03;48;31;
44350;PMS5003;62766;62.622;17.912;2022-09-19T16:21:33;27;18;
44350;PMS5003;62766;62.622;17.912;2022-09-19T16:24:07;33;21;
44350;PMS5003;62766;62.622;17.912;2022-09-19T16:26:37;9;8;
44350;PMS5003;62766;62.622;17.912;2022-09-19T16:29:06;8;7;
44350;PMS5003;62766;62.622;17.912;2022-09-19T16:31:35;5;5;
44350;PMS5003;62766;62.622;17.912;2022-09-19T16:34:07;2;1;
44350;PMS5003;62766;62.622;17.912;2022-09-19T16:36:45;0;0;
44350;PMS5003;62766;62.622;17.912;2022-09-19T16:39:18;0;0;
44350;PMS5003;62766;62.622;17.912;2022-09-19T16:41:59;0;0;
44350;PMS5003;62766;62.622;17.912;2022-09-19T16:44:33;0;0;
44350;PMS5003;62766;62.622;17.912;2022-09-19T16:47:09;0;0;
44350;PMS5003;62766;62.622;17.912;2022-09-19T16:49:40;0;0;
44350;PMS5003;62766;62.622;17.912;2022-09-19T16:52:15;0;0;
44350;PMS5003;62766;62.622;17.912;2022-09-19T16:54:47;0;0;
44350;PMS5003;62766;62.622;17.912;2022-09-19T16:57:17;2;2;
44350;PMS5003;62766;62.622;17.912;2022-09-19T16:59:47;0;0;
44350;PMS5003;62766;62.622;17.912;2022-09-19T17:02:18;0;0;
44350;PMS5003;62766;62.622;17.912;2022-09-19T17:04:51;0;0;
44350;PMS5003;62766;62.622;17.912;2022-09-19T17:07:20;0;0;
44350;PMS5003;62766;62.622;17.912;2022-09-19T17:09:49;0;0;
44350;PMS5003;62766;62.622;17.912;2022-09-19T17:12:19;0;0;
44350;PMS5003;62766;62.622;17.912;2022-09-19T17:14:50;0;0;
44350;PMS5003;62766;62.622;17.912;2022-09-19T17:17:18;0;0;
44350;PMS5003;62766;62.622;17.912;2022-09-19T17:19:46;0;0;
44350;PMS5003;62766;62.622;17.912;2022-09-19T17:22:16;0;0;
44350;PMS5003;62766;62.622;17.912;2022-09-19T17:24:46;0;0;
44350;PMS5003;62766;62.622;17.912;2022-09-19T17:27:15;0;0;